createdAt,value
2023-09-24T00:00:41.008Z,86.74
2023-09-24T00:03:09.605Z,86.78
2023-09-24T00:05:42.173Z,87.12
2023-09-24T00:08:10.528Z,87.23
2023-09-24T00:10:38.657Z,87.43
2023-09-24T00:13:07.206Z,87.59
2023-09-24T00:15:35.614Z,87.76
2023-09-24T00:18:06.043Z,87.88
2023-09-24T00:20:34.473Z,88.30
2023-09-24T00:23:04.567Z,88.57
2023-09-24T00:25:34.754Z,88.68
2023-09-24T00:28:03.991Z,88.90
2023-09-24T00:30:32.998Z,88.91
2023-09-24T00:33:01.370Z,88.99
2023-09-24T00:35:36.325Z,88.94
2023-09-24T00:38:07.590Z,89.06
2023-09-24T00:40:37.541Z,89.02
2023-09-24T00:43:31.747Z,88.92
2023-09-24T00:46:02.448Z,88.86
2023-09-24T00:48:32.517Z,88.82
2023-09-24T00:51:04.860Z,88.90
2023-09-24T00:53:34.645Z,88.90
2023-09-24T00:56:05.675Z,88.97
2023-09-24T00:58:36.082Z,89.05
2023-09-24T01:01:05.379Z,89.09
2023-09-24T01:03:34.521Z,89.15
2023-09-24T01:06:07.771Z,89.13
2023-09-24T01:08:36.017Z,89.35
2023-09-24T01:11:05.166Z,89.48
2023-09-24T01:13:40.939Z,89.72
2023-09-24T01:16:11.320Z,89.80
2023-09-24T01:18:43.582Z,89.91
2023-09-24T01:21:14.616Z,90.05
2023-09-24T01:23:47.987Z,90.13
2023-09-24T01:26:17.541Z,90.30
2023-09-24T01:28:48.751Z,90.47
2023-09-24T01:31:20.076Z,90.58
2023-09-24T01:33:50.326Z,90.77
2023-09-24T01:36:23.832Z,90.82
2023-09-24T01:38:54.991Z,90.84
2023-09-24T01:41:26.973Z,90.81
2023-09-24T01:43:55.509Z,90.64
2023-09-24T01:46:24.316Z,90.54
2023-09-24T01:48:55.498Z,90.44
2023-09-24T01:51:25.905Z,90.38
2023-09-24T01:53:58.209Z,90.26
2023-09-24T01:56:26.226Z,90.08
2023-09-24T01:58:54.290Z,89.95
2023-09-24T02:01:24.024Z,89.82
2023-09-24T02:03:52.552Z,89.78
2023-09-24T02:06:21.723Z,89.91
2023-09-24T02:08:50.094Z,90.00
2023-09-24T02:11:19.836Z,90.06
2023-09-24T02:13:48.911Z,90.18
2023-09-24T02:16:18.126Z,90.28
2023-09-24T02:18:48.985Z,90.33
2023-09-24T02:21:21.066Z,90.31
2023-09-24T02:23:49.357Z,90.51
2023-09-24T02:26:19.042Z,90.71
2023-09-24T02:28:47.121Z,90.87
2023-09-24T02:31:15.586Z,90.99
2023-09-24T02:33:44.859Z,91.09
2023-09-24T02:36:13.418Z,91.20
2023-09-24T02:38:42.039Z,91.20
2023-09-24T02:41:11.854Z,91.19
2023-09-24T02:43:42.210Z,91.28
2023-09-24T02:46:11.253Z,91.28
2023-09-24T02:48:41.351Z,91.23
2023-09-24T02:51:11.579Z,91.29
2023-09-24T02:53:42.919Z,91.35
2023-09-24T02:56:11.379Z,91.42
2023-09-24T02:58:43.327Z,91.46
2023-09-24T03:01:17.030Z,91.47
2023-09-24T03:03:45.893Z,91.47
2023-09-24T03:06:15.221Z,91.43
2023-09-24T03:08:43.411Z,91.41
2023-09-24T03:11:16.338Z,91.50
2023-09-24T03:13:46.796Z,91.49
2023-09-24T03:16:15.502Z,91.45
2023-09-24T03:18:45.200Z,91.28
2023-09-24T03:21:17.150Z,91.17
2023-09-24T03:23:48.421Z,91.01
2023-09-24T03:26:17.281Z,90.92
2023-09-24T03:28:48.909Z,90.87
2023-09-24T03:31:17.770Z,90.92
2023-09-24T03:33:48.395Z,90.96
2023-09-24T03:36:17.245Z,90.95
2023-09-24T03:38:46.480Z,90.96
2023-09-24T03:41:14.896Z,90.91
2023-09-24T03:43:43.617Z,90.94
2023-09-24T03:46:13.804Z,90.87
2023-09-24T03:48:45.290Z,90.87
2023-09-24T03:51:14.350Z,90.78
2023-09-24T03:53:42.562Z,90.64
2023-09-24T03:56:11.515Z,90.51
2023-09-24T03:58:39.975Z,90.38
2023-09-24T04:01:11.721Z,90.27
2023-09-24T04:03:41.401Z,90.18
2023-09-24T04:06:12.893Z,90.06
2023-09-24T04:08:41.382Z,90.03
2023-09-24T04:11:16.028Z,89.93
2023-09-24T04:13:44.169Z,89.85
2023-09-24T04:16:13.614Z,89.82
2023-09-24T04:18:45.065Z,89.80
2023-09-24T04:21:19.835Z,89.72
2023-09-24T04:23:48.509Z,89.64
2023-09-24T04:26:26.350Z,89.62
2023-09-24T04:28:56.396Z,89.56
2023-09-24T04:31:24.566Z,89.49
2023-09-24T04:33:59.879Z,89.53
2023-09-24T04:36:28.325Z,89.45
2023-09-24T04:38:56.647Z,89.38
2023-09-24T04:41:25.617Z,89.33
2023-09-24T04:43:54.612Z,89.28
2023-09-24T04:46:23.428Z,89.25
2023-09-24T04:48:52.306Z,89.28
2023-09-24T04:51:22.246Z,89.26
2023-09-24T04:53:50.678Z,89.20
2023-09-24T04:56:19.331Z,89.22
2023-09-24T04:58:47.695Z,89.27
2023-09-24T05:01:16.342Z,89.26
2023-09-24T05:03:45.850Z,89.28
2023-09-24T05:06:14.289Z,89.30
2023-09-24T05:08:44.122Z,89.26
2023-09-24T05:11:12.904Z,89.30
2023-09-24T05:13:41.537Z,89.21
2023-09-24T05:16:11.978Z,89.20
2023-09-24T05:18:41.242Z,89.22
2023-09-24T05:21:16.274Z,89.17
2023-09-24T05:23:46.844Z,89.16
2023-09-24T05:26:16.420Z,89.12
2023-09-24T05:28:44.853Z,89.08
2023-09-24T05:31:14.223Z,89.07
2023-09-24T05:33:43.354Z,89.02
2023-09-24T05:36:11.608Z,88.99
2023-09-24T05:38:40.271Z,88.99
2023-09-24T05:41:09.797Z,88.99
2023-09-24T05:43:40.270Z,88.97
2023-09-24T05:46:08.708Z,88.92
2023-09-24T05:48:36.882Z,88.90
2023-09-24T05:51:05.620Z,88.89
2023-09-24T05:53:34.528Z,88.79
2023-09-24T05:56:04.637Z,88.77
2023-09-24T05:58:34.940Z,88.67
2023-09-24T06:01:05.287Z,88.56
2023-09-24T06:03:33.706Z,88.46
2023-09-24T06:06:03.143Z,88.35
2023-09-24T06:08:32.336Z,88.15
2023-09-24T06:11:00.475Z,87.96
2023-09-24T06:13:28.917Z,87.85
2023-09-24T06:16:02.599Z,87.66
2023-09-24T06:18:33.777Z,87.53
2023-09-24T06:21:04.195Z,87.35
2023-09-24T06:23:32.701Z,87.21
2023-09-24T06:26:01.248Z,86.99
2023-09-24T06:28:30.601Z,86.75
2023-09-24T06:31:04.913Z,86.65
2023-09-24T06:33:33.939Z,86.24
2023-09-24T06:36:03.574Z,86.02
2023-09-24T06:38:36.536Z,85.66
2023-09-24T06:41:06.401Z,85.20
2023-09-24T06:43:34.843Z,85.01
2023-09-24T06:46:06.146Z,84.39
2023-09-24T06:48:34.947Z,84.07
2023-09-24T06:51:10.431Z,83.42
2023-09-24T06:53:40.616Z,82.90
2023-09-24T06:56:09.102Z,81.70
2023-09-24T06:58:38.057Z,81.44
2023-09-24T07:01:10.376Z,80.98
2023-09-24T07:03:38.592Z,80.33
2023-09-24T07:06:07.967Z,79.90
2023-09-24T07:08:36.787Z,79.71
2023-09-24T07:11:26.973Z,79.36
2023-09-24T07:13:55.156Z,78.79
2023-09-24T07:16:28.085Z,77.84
2023-09-24T07:18:58.510Z,77.21
2023-09-24T07:21:35.585Z,76.97
2023-09-24T07:24:06.260Z,75.11
2023-09-24T07:26:35.477Z,74.31
2023-09-24T07:29:04.916Z,73.18
2023-09-24T07:31:35.739Z,72.36
2023-09-24T07:34:06.947Z,72.09
2023-09-24T07:36:44.151Z,71.84
2023-09-24T07:39:21.518Z,70.99
2023-09-24T07:41:54.291Z,70.44
2023-09-24T07:44:22.466Z,69.90
2023-09-24T07:46:53.776Z,69.17
2023-09-24T07:49:23.900Z,69.40
2023-09-24T07:51:52.323Z,69.36
2023-09-24T07:54:21.250Z,69.01
2023-09-24T07:56:51.420Z,69.38
2023-09-24T07:59:22.986Z,69.46
2023-09-24T08:01:53.069Z,68.54
2023-09-24T08:04:21.448Z,68.46
2023-09-24T08:06:49.633Z,67.48
2023-09-24T08:09:27.089Z,65.54
2023-09-24T08:11:56.713Z,64.78
2023-09-24T08:14:26.369Z,63.57
2023-09-24T08:16:57.345Z,63.42
2023-09-24T08:19:27.369Z,63.66
2023-09-24T08:21:55.579Z,63.74
2023-09-24T08:24:24.509Z,62.62
2023-09-24T08:26:52.738Z,60.36
2023-09-24T08:29:21.707Z,58.87
2023-09-24T08:31:52.858Z,57.52
2023-09-24T08:34:27.073Z,57.28
2023-09-24T08:36:55.979Z,56.87
2023-09-24T08:39:24.873Z,57.92
2023-09-24T08:41:55.706Z,58.12
2023-09-24T08:44:30.214Z,57.39
2023-09-24T08:46:59.727Z,56.45
2023-09-24T08:49:30.208Z,55.01
2023-09-24T08:51:59.239Z,53.69
2023-09-24T08:54:28.478Z,53.71
2023-09-24T08:56:58.688Z,53.20
2023-09-24T08:59:28.263Z,52.17
2023-09-24T09:01:59.339Z,51.92
2023-09-24T09:04:30.461Z,52.34
2023-09-24T09:07:14.905Z,52.16
2023-09-24T09:09:46.401Z,50.88
2023-09-24T09:12:21.129Z,50.22
2023-09-24T09:14:50.591Z,49.85
2023-09-24T09:17:19.535Z,49.80
2023-09-24T09:19:54.082Z,49.75
2023-09-24T09:22:24.450Z,49.41
2023-09-24T09:25:05.441Z,50.90
2023-09-24T09:27:35.576Z,50.04
2023-09-24T09:30:12.414Z,49.52
2023-09-24T09:32:44.637Z,49.55
2023-09-24T09:35:15.341Z,48.98
2023-09-24T09:37:44.997Z,49.11
2023-09-24T09:40:19.722Z,49.42
2023-09-24T09:42:50.819Z,48.53
2023-09-24T09:45:19.583Z,49.45
2023-09-24T09:48:00.236Z,50.89
2023-09-24T09:50:37.198Z,51.62
2023-09-24T09:53:09.033Z,51.81
2023-09-24T09:55:40.794Z,52.16
2023-09-24T09:58:22.087Z,52.99
2023-09-24T10:00:51.985Z,53.03
2023-09-24T10:03:20.476Z,51.50
2023-09-24T10:05:51.378Z,51.60
2023-09-24T10:08:42.667Z,50.81
2023-09-24T10:11:13.416Z,50.39
2023-09-24T10:13:45.806Z,49.68
2023-09-24T10:16:40.644Z,48.72
2023-09-24T10:19:11.509Z,48.89
2023-09-24T10:21:44.128Z,48.51
2023-09-24T10:24:46.063Z,47.50
2023-09-24T10:27:15.166Z,48.06
2023-09-24T10:30:09.679Z,47.69
2023-09-24T10:32:50.575Z,47.82
2023-09-24T10:35:22.791Z,48.09
2023-09-24T10:38:08.092Z,46.88
2023-09-24T10:40:38.929Z,46.03
2023-09-24T10:43:16.236Z,46.23
2023-09-24T10:45:45.475Z,46.45
2023-09-24T10:48:14.747Z,46.24
2023-09-24T10:50:44.961Z,45.77
2023-09-24T10:53:21.516Z,44.80
2023-09-24T10:56:01.249Z,44.47
2023-09-24T10:58:31.274Z,44.73
2023-09-24T11:00:59.799Z,44.25
2023-09-24T11:03:35.534Z,43.35
2023-09-24T11:06:04.011Z,43.81
2023-09-24T11:08:43.225Z,43.59
2023-09-24T11:11:17.353Z,42.26
2023-09-24T11:13:46.073Z,42.76
2023-09-24T11:16:15.091Z,43.79
2023-09-24T11:18:51.053Z,43.12
2023-09-24T11:21:19.442Z,43.90
2023-09-24T11:23:49.052Z,43.86
2023-09-24T11:26:20.402Z,44.15
2023-09-24T11:28:49.093Z,43.51
2023-09-24T11:31:28.306Z,43.72
2023-09-24T11:33:57.548Z,45.08
2023-09-24T11:36:29.253Z,45.00
2023-09-24T11:39:04.349Z,44.96
2023-09-24T11:41:32.808Z,44.82
2023-09-24T11:44:01.383Z,45.00
2023-09-24T11:46:30.587Z,44.96
2023-09-24T11:49:01.177Z,44.08
2023-09-24T11:51:31.105Z,43.09
2023-09-24T11:54:00.764Z,43.21
2023-09-24T11:56:30.852Z,43.64
2023-09-24T11:59:00.197Z,42.61
2023-09-24T12:01:31.301Z,43.35
2023-09-24T12:04:02.617Z,43.92
2023-09-24T12:06:32.508Z,43.54
2023-09-24T12:09:02.177Z,44.77
2023-09-24T12:11:34.507Z,44.71
2023-09-24T12:14:04.443Z,44.93
2023-09-24T12:16:33.589Z,44.75
2023-09-24T12:19:03.444Z,45.95
2023-09-24T12:21:33.200Z,45.56
2023-09-24T12:24:02.112Z,46.09
2023-09-24T12:26:31.717Z,46.45
2023-09-24T12:29:00.866Z,47.09
2023-09-24T12:31:28.938Z,47.08
2023-09-24T12:33:59.034Z,46.57
2023-09-24T12:36:27.632Z,46.68
2023-09-24T12:38:58.229Z,46.90
2023-09-24T12:41:27.932Z,48.66
2023-09-24T12:43:58.000Z,49.85
2023-09-24T12:46:26.720Z,51.32
2023-09-24T12:48:55.077Z,51.64
2023-09-24T12:51:24.022Z,51.39
2023-09-24T12:53:52.758Z,50.24
2023-09-24T12:56:22.641Z,51.17
2023-09-24T12:58:53.819Z,51.93
2023-09-24T13:01:24.692Z,51.85
2023-09-24T13:03:53.666Z,50.98
2023-09-24T13:06:26.459Z,51.96
2023-09-24T13:08:55.482Z,51.85
2023-09-24T13:11:24.886Z,51.19
2023-09-24T13:13:53.211Z,52.71
2023-09-24T13:16:21.525Z,53.02
2023-09-24T13:18:52.225Z,53.57
2023-09-24T13:21:21.046Z,53.31
2023-09-24T13:23:49.528Z,53.88
2023-09-24T13:26:21.591Z,53.64
2023-09-24T13:28:49.950Z,53.76
2023-09-24T13:31:19.329Z,55.01
2023-09-24T13:33:47.570Z,54.83
2023-09-24T13:36:18.301Z,55.22
2023-09-24T13:38:46.425Z,55.67
2023-09-24T13:41:15.034Z,55.83
2023-09-24T13:43:43.181Z,55.62
2023-09-24T13:46:11.613Z,56.23
2023-09-24T13:48:39.842Z,55.65
2023-09-24T13:51:08.082Z,55.40
2023-09-24T13:53:37.622Z,55.73
2023-09-24T13:56:11.935Z,55.46
2023-09-24T13:58:40.189Z,56.27
2023-09-24T14:01:09.485Z,56.86
2023-09-24T14:03:38.548Z,56.85
2023-09-24T14:06:07.243Z,56.69
2023-09-24T14:08:54.761Z,56.42
2023-09-24T14:11:41.909Z,56.82
2023-09-24T14:14:10.259Z,56.00
2023-09-24T14:16:42.400Z,55.86
2023-09-24T14:19:13.693Z,55.77
2023-09-24T14:21:43.360Z,56.10
2023-09-24T14:24:14.624Z,56.09
2023-09-24T14:26:44.286Z,56.91
2023-09-24T14:29:16.600Z,55.62
2023-09-24T14:31:46.052Z,55.97
2023-09-24T14:34:16.610Z,56.30
2023-09-24T14:36:46.808Z,56.60
2023-09-24T14:39:17.446Z,55.91
2023-09-24T14:41:48.335Z,56.28
2023-09-24T14:44:18.725Z,55.28
2023-09-24T14:46:49.026Z,55.62
2023-09-24T14:49:18.434Z,55.28
2023-09-24T14:51:47.787Z,55.76
2023-09-24T14:54:19.596Z,55.83
2023-09-24T14:56:48.857Z,55.88
2023-09-24T14:59:18.766Z,55.94
2023-09-24T15:01:48.241Z,56.12
2023-09-24T15:04:17.538Z,55.89
2023-09-24T15:06:48.466Z,56.12
2023-09-24T15:09:20.777Z,55.99
2023-09-24T15:11:52.855Z,55.21
2023-09-24T15:14:24.611Z,55.81
2023-09-24T15:16:55.569Z,55.15
2023-09-24T15:19:24.627Z,55.54
2023-09-24T15:21:53.508Z,55.24
2023-09-24T15:24:24.185Z,55.21
2023-09-24T15:26:54.730Z,55.49
2023-09-24T15:29:28.710Z,55.58
2023-09-24T15:32:02.341Z,55.79
2023-09-24T15:34:34.055Z,56.73
2023-09-24T15:37:12.885Z,56.30
2023-09-24T15:39:48.902Z,55.33
2023-09-24T15:42:18.010Z,56.94
2023-09-24T15:44:47.738Z,56.98
2023-09-24T15:47:19.496Z,56.74
2023-09-24T15:49:49.008Z,56.20
2023-09-24T15:52:17.954Z,56.24
2023-09-24T15:54:48.495Z,56.25
2023-09-24T15:57:17.935Z,56.66
2023-09-24T15:59:47.319Z,56.27
2023-09-24T16:02:16.192Z,56.13
2023-09-24T16:04:45.222Z,56.06
2023-09-24T16:07:15.042Z,56.27
2023-09-24T16:09:43.386Z,56.65
2023-09-24T16:12:14.735Z,57.20
2023-09-24T16:14:43.314Z,57.60
2023-09-24T16:17:13.358Z,58.53
2023-09-24T16:19:43.115Z,57.73
2023-09-24T16:22:12.431Z,57.97
2023-09-24T16:24:42.417Z,57.92
2023-09-24T16:27:11.572Z,58.38
2023-09-24T16:29:41.845Z,58.56
2023-09-24T16:32:10.993Z,59.10
2023-09-24T16:34:40.880Z,59.96
2023-09-24T16:37:10.302Z,60.12
2023-09-24T16:39:39.450Z,60.83
2023-09-24T16:42:08.269Z,60.51
2023-09-24T16:44:37.148Z,61.20
2023-09-24T16:47:07.131Z,61.13
2023-09-24T16:49:35.323Z,61.92
2023-09-24T16:52:03.706Z,62.25
2023-09-24T16:54:32.392Z,62.74
2023-09-24T16:57:00.723Z,63.26
2023-09-24T16:59:29.860Z,63.81
2023-09-24T17:02:00.444Z,64.24
2023-09-24T17:04:30.736Z,64.81
2023-09-24T17:06:58.893Z,65.39
2023-09-24T17:09:27.188Z,65.76
2023-09-24T17:11:56.951Z,66.18
2023-09-24T17:14:25.303Z,66.54
2023-09-24T17:16:54.423Z,66.89
2023-09-24T17:19:23.771Z,67.40
2023-09-24T17:21:53.443Z,67.96
2023-09-24T17:24:24.908Z,68.34
2023-09-24T17:26:53.279Z,69.05
2023-09-24T17:29:21.922Z,69.40
2023-09-24T17:31:50.393Z,69.85
2023-09-24T17:34:20.683Z,70.51
2023-09-24T17:36:49.272Z,70.64
2023-09-24T17:39:18.930Z,71.02
2023-09-24T17:41:47.835Z,71.54
2023-09-24T17:44:16.439Z,72.00
2023-09-24T17:46:44.878Z,72.62
2023-09-24T17:49:13.301Z,73.03
2023-09-24T17:51:41.672Z,73.40
2023-09-24T17:54:11.457Z,74.01
2023-09-24T17:56:43.132Z,74.20
2023-09-24T17:59:11.172Z,74.24
2023-09-24T18:01:40.461Z,74.45
2023-09-24T18:04:09.119Z,74.80
2023-09-24T18:06:37.380Z,75.21
2023-09-24T18:09:06.231Z,75.60
2023-09-24T18:11:34.618Z,75.94
2023-09-24T18:14:04.271Z,76.15
2023-09-24T18:16:33.374Z,76.48
2023-09-24T18:19:01.771Z,77.08
2023-09-24T18:21:30.325Z,77.32
2023-09-24T18:23:58.371Z,77.60
2023-09-24T18:26:26.526Z,78.14
2023-09-24T18:28:55.093Z,78.23
2023-09-24T18:31:24.715Z,78.56
2023-09-24T18:33:52.848Z,78.97
2023-09-24T18:36:21.380Z,79.25
2023-09-24T18:38:50.689Z,79.29
2023-09-24T18:41:19.843Z,79.66
2023-09-24T18:43:48.357Z,79.76
2023-09-24T18:46:16.869Z,80.15
2023-09-24T18:48:49.241Z,80.39
2023-09-24T18:51:18.418Z,80.51
2023-09-24T18:53:46.563Z,80.81
2023-09-24T18:56:14.964Z,81.00
2023-09-24T18:58:45.221Z,81.28
2023-09-24T19:01:14.439Z,81.49
2023-09-24T19:03:44.457Z,81.66
2023-09-24T19:06:14.876Z,81.80
2023-09-24T19:08:43.430Z,82.04
2023-09-24T19:11:12.469Z,82.31
2023-09-24T19:13:43.103Z,82.35
2023-09-24T19:16:11.931Z,82.42
2023-09-24T19:18:44.816Z,82.50
2023-09-24T19:21:15.231Z,82.46
2023-09-24T19:23:43.760Z,82.37
2023-09-24T19:26:16.539Z,82.50
2023-09-24T19:28:46.462Z,82.64
2023-09-24T19:31:17.037Z,82.66
2023-09-24T19:33:46.230Z,82.72
2023-09-24T19:36:18.344Z,82.89
2023-09-24T19:38:50.395Z,82.96
2023-09-24T19:41:21.244Z,82.82
2023-09-24T19:43:49.702Z,82.92
2023-09-24T19:46:21.851Z,83.00
2023-09-24T19:48:54.504Z,83.07
2023-09-24T19:51:26.363Z,83.00
2023-09-24T19:53:58.303Z,83.07
2023-09-24T19:56:28.017Z,83.17
2023-09-24T19:58:56.556Z,83.07
2023-09-24T20:01:24.846Z,83.16
2023-09-24T20:03:53.377Z,83.11
2023-09-24T20:06:22.809Z,83.14
2023-09-24T20:08:53.164Z,83.17
2023-09-24T20:11:21.862Z,83.30
2023-09-24T20:13:54.864Z,83.35
2023-09-24T20:16:24.060Z,83.39
2023-09-24T20:18:52.574Z,83.43
2023-09-24T20:21:21.097Z,83.32
2023-09-24T20:23:49.379Z,83.41
2023-09-24T20:26:18.751Z,83.43
2023-09-24T20:28:53.376Z,83.48
2023-09-24T20:31:21.760Z,83.66
2023-09-24T20:34:00.556Z,83.85
2023-09-24T20:36:30.480Z,83.94
2023-09-24T20:39:00.361Z,84.01
2023-09-24T20:41:32.687Z,84.08
2023-09-24T20:44:00.874Z,84.28
2023-09-24T20:46:34.783Z,84.46
2023-09-24T20:49:03.875Z,84.63
2023-09-24T20:51:32.170Z,84.72
2023-09-24T20:54:01.266Z,84.75
2023-09-24T20:56:31.745Z,84.94
2023-09-24T20:59:03.926Z,85.08
2023-09-24T21:01:32.639Z,85.03
2023-09-24T21:04:01.013Z,85.14
2023-09-24T21:06:29.243Z,85.30
2023-09-24T21:08:57.700Z,85.46
2023-09-24T21:11:26.190Z,85.50
2023-09-24T21:13:56.209Z,85.70
2023-09-24T21:16:25.695Z,85.89
2023-09-24T21:18:54.881Z,85.83
2023-09-24T21:21:24.949Z,85.91
2023-09-24T21:23:54.227Z,86.05
2023-09-24T21:26:22.355Z,86.18
2023-09-24T21:28:51.740Z,86.27
2023-09-24T21:31:21.809Z,86.38
2023-09-24T21:33:50.809Z,86.46
2023-09-24T21:36:19.949Z,86.62
2023-09-24T21:38:51.872Z,86.65
2023-09-24T21:41:21.590Z,86.69
2023-09-24T21:43:52.194Z,86.80
2023-09-24T21:46:24.554Z,86.98
2023-09-24T21:48:54.410Z,87.08
2023-09-24T21:51:23.303Z,87.18
2023-09-24T21:53:54.427Z,87.25
2023-09-24T21:56:24.063Z,87.39
2023-09-24T21:58:52.248Z,87.67
2023-09-24T22:01:23.385Z,87.80
2023-09-24T22:03:53.113Z,87.87
2023-09-24T22:06:21.603Z,88.03
2023-09-24T22:08:50.215Z,88.00
2023-09-24T22:11:18.492Z,88.15
2023-09-24T22:13:46.710Z,88.32
2023-09-24T22:16:16.341Z,88.42
2023-09-24T22:18:48.299Z,88.44
2023-09-24T22:21:17.037Z,88.51
2023-09-24T22:23:45.200Z,88.54
2023-09-24T22:26:14.078Z,88.63
2023-09-24T22:28:45.513Z,88.62
2023-09-24T22:31:13.717Z,88.80
2023-09-24T22:33:42.552Z,88.93
2023-09-24T22:36:16.675Z,89.02
2023-09-24T22:38:45.361Z,89.06
2023-09-24T22:41:13.782Z,89.20
2023-09-24T22:43:42.214Z,89.32
2023-09-24T22:46:12.406Z,89.35
2023-09-24T22:48:40.847Z,89.43
2023-09-24T22:51:09.681Z,89.52
2023-09-24T22:53:39.214Z,89.57
2023-09-24T22:56:07.493Z,89.68
2023-09-24T22:58:36.325Z,89.73
2023-09-24T23:01:06.891Z,89.76
2023-09-24T23:03:37.827Z,89.88
2023-09-24T23:06:07.129Z,89.97
2023-09-24T23:08:35.544Z,89.95
2023-09-24T23:11:06.357Z,89.98
2023-09-24T23:13:35.801Z,90.06
2023-09-24T23:16:03.988Z,90.14
2023-09-24T23:18:32.374Z,90.18
2023-09-24T23:21:00.722Z,90.36
2023-09-24T23:23:29.442Z,90.40
2023-09-24T23:25:57.806Z,90.56
2023-09-24T23:28:28.114Z,90.71
2023-09-24T23:30:56.321Z,90.64
2023-09-24T23:33:24.579Z,90.62
2023-09-24T23:35:52.928Z,90.58
2023-09-24T23:38:21.128Z,90.80
2023-09-24T23:40:49.228Z,90.84
2023-09-24T23:43:17.898Z,90.86
2023-09-24T23:45:47.633Z,91.05
2023-09-24T23:48:17.764Z,91.08
2023-09-24T23:50:46.484Z,91.21
2023-09-24T23:53:15.776Z,91.34
2023-09-24T23:55:44.666Z,91.40
2023-09-24T23:58:15.413Z,91.53
